Time;durP1;ratioP1;P1;durP2;ratioP2;P2;SDS_P1;SDS_P2;PMS_P1;PMS_P2;Temp;Humidity;BMP_temperature;BMP_pressure;BME280_temperature;BME280_humidity;BME280_pressure;Samples;Min_cycle;Max_cycle;Signal;HPM_P1;HPM_P2
2022/01/06 00:01:04;;;;;;;27.27;4.28;;;4.10;99.90;;;;;;4911229;29;20135;-77
2022/01/06 00:03:31;;;;;;;23.13;4.22;;;4.10;99.90;;;;;;4901175;29;20527;-76
2022/01/06 00:05:57;;;;;;;16.67;3.45;;;4.10;99.90;;;;;;4895495;29;20048;-76
2022/01/06 00:08:23;;;;;;;;;;;4.10;99.90;;;;;;4911619;29;20052;-77
2022/01/06 00:10:50;;;;;;;15.65;3.10;;;4.00;99.90;;;;;;4928343;29;19983;-77
2022/01/06 00:13:22;;;;;;;13.88;2.50;;;4.10;99.90;;;;;;4928451;29;20044;-77
2022/01/06 00:23:06;;;;;;;16.13;3.05;;;4.00;99.90;;;;;;4911361;29;20488;-77
2022/01/06 00:24:04;;;;;;;13.38;3.45;;;3.90;99.90;;;;;;4923786;29;20048;-77
2022/01/06 00:26:29;;;;;;;18.13;3.97;;;3.90;99.90;;;;;;4910939;29;20050;-77
2022/01/06 00:28:55;;;;;;;29.33;4.53;;;3.90;99.90;;;;;;4904718;29;20075;-77
2022/01/06 00:31:20;;;;;;;15.03;3.43;;;3.90;99.90;;;;;;4910595;29;20040;-76
2022/01/06 00:33:46;;;;;;;21.33;4.13;;;3.90;99.90;;;;;;4910771;29;20044;-77
2022/01/06 00:36:12;;;;;;;17.97;3.60;;;3.90;99.90;;;;;;4910724;29;20044;-76
2022/01/06 00:38:37;;;;;;;24.57;3.97;;;3.90;99.90;;;;;;4927434;29;20449;-76
2022/01/06 00:41:03;;;;;;;27.23;3.83;;;3.80;99.90;;;;;;4928129;29;20479;-76
2022/01/06 00:43:29;;;;;;;22.80;4.03;;;3.80;99.90;;;;;;4894407;29;20055;-76
2022/01/06 00:45:55;;;;;;;26.17;4.85;;;3.80;99.90;;;;;;4910821;29;20055;-76
2022/01/06 00:48:21;;;;;;;24.50;3.87;;;3.80;99.90;;;;;;4942010;29;20055;-76
2022/01/06 00:50:46;;;;;;;29.10;4.93;;;3.80;99.90;;;;;;4927484;29;20066;-76
2022/01/06 00:53:12;;;;;;;22.97;4.20;;;3.70;99.90;;;;;;4927304;29;20093;-76
2022/01/06 00:55:39;;;;;;;23.90;4.43;;;3.70;99.90;;;;;;4910690;29;20296;-76
2022/01/06 00:58:05;;;;;;;26.63;4.00;;;3.70;99.90;;;;;;4910234;29;20114;-75
2022/01/06 01:00:39;;;;;;;29.38;4.03;;;3.60;99.90;;;;;;4910011;29;20050;-75
2022/01/06 01:03:17;;;;;;;16.75;3.95;;;3.60;99.90;;;;;;4909956;29;20052;-76
2022/01/06 01:05:45;;;;;;;17.17;4.07;;;3.50;99.90;;;;;;4891442;29;20096;-76
2022/01/06 01:08:11;;;;;;;18.75;3.53;;;3.40;99.90;;;;;;4926566;29;20060;-76
2022/01/06 01:10:37;;;;;;;19.08;4.00;;;3.40;99.90;;;;;;4910036;29;20044;-76
2022/01/06 01:13:04;;;;;;;15.30;3.00;;;3.40;99.90;;;;;;4909823;29;20048;-77
2022/01/06 01:15:32;;;;;;;;;;;3.40;99.90;;;;;;4895138;29;20048;-76
2022/01/06 01:18:05;;;;;;;21.58;3.53;;;3.30;99.90;;;;;;4894393;29;20437;-76
2022/01/06 01:20:33;;;;;;;19.25;3.55;;;3.30;99.90;;;;;;4894409;29;20059;-76
2022/01/06 01:22:59;;;;;;;17.10;3.30;;;3.40;99.90;;;;;;4941316;29;20067;-76
2022/01/06 01:25:25;;;;;;;21.25;3.38;;;3.40;99.90;;;;;;4927151;29;20071;-76
2022/01/06 01:27:54;;;;;;;18.33;2.92;;;3.40;99.90;;;;;;4920821;29;20095;-76
2022/01/06 01:30:22;;;;;;;23.33;3.10;;;3.40;99.90;;;;;;4906439;29;20056;-76
2022/01/06 01:32:51;;;;;;;15.50;2.80;;;3.40;99.90;;;;;;4899191;29;20044;-76
2022/01/06 01:35:17;;;;;;;18.92;2.88;;;3.50;99.90;;;;;;4909789;29;20401;-76
2022/01/06 01:37:43;;;;;;;14.35;2.60;;;3.50;99.90;;;;;;4909407;29;20048;-76
2022/01/06 01:40:10;;;;;;;14.38;2.95;;;3.40;99.90;;;;;;4925757;29;20048;-76
2022/01/06 01:42:36;;;;;;;22.23;3.88;;;3.40;99.90;;;;;;4909541;29;20044;-76
2022/01/06 01:45:04;;;;;;;14.02;3.08;;;3.40;99.90;;;;;;4925899;29;20072;-76
2022/01/06 01:47:37;;;;;;;18.35;3.88;;;3.30;99.90;;;;;;4909553;29;20103;-77
2022/01/06 01:50:18;;;;;;;13.20;2.92;;;3.30;99.90;;;;;;4893491;29;20095;-76
2022/01/06 01:52:52;;;;;;;13.68;2.53;;;3.40;99.90;;;;;;4940675;29;20052;-74
2022/01/06 01:55:28;;;;;;;13.90;2.65;;;3.40;99.90;;;;;;4909571;29;20048;-77
2022/01/06 01:57:55;;;;;;;10.10;2.47;;;3.40;99.90;;;;;;4893899;29;20120;-76
2022/01/06 02:00:24;;;;;;;9.60;3.00;;;3.50;99.90;;;;;;4909057;29;20067;-76
2022/01/06 02:02:50;;;;;;;15.70;2.85;;;3.40;99.90;;;;;;4908696;29;20132;-75
2022/01/06 02:05:24;;;;;;;15.65;2.70;;;3.40;99.90;;;;;;4905473;29;20032;-75
2022/01/06 02:07:50;;;;;;;17.15;2.65;;;3.40;99.90;;;;;;4909155;29;20056;-74
2022/01/06 02:10:15;;;;;;;12.13;2.53;;;3.40;99.90;;;;;;4909934;29;20064;-75
2022/01/06 02:12:42;;;;;;;12.63;2.60;;;3.40;99.90;;;;;;4909182;29;20689;-75
2022/01/06 02:15:10;;;;;;;14.70;2.65;;;3.40;99.90;;;;;;4894079;29;20091;-75
2022/01/06 02:17:37;;;;;;;7.90;2.33;;;3.30;99.90;;;;;;4929033;29;20094;-76
2022/01/06 02:20:09;;;;;;;10.63;2.72;;;3.30;99.90;;;;;;4912150;29;20067;-75
2022/01/06 02:22:35;;;;;;;11.32;2.63;;;3.30;99.90;;;;;;4915922;29;20053;-75
2022/01/06 02:25:32;;;;;;;9.90;2.47;;;3.30;99.90;;;;;;4938140;29;20500;-75
2022/01/06 02:28:02;;;;;;;14.40;2.58;;;3.30;99.90;;;;;;4883954;29;20072;-76
2022/01/06 02:30:31;;;;;;;11.27;2.65;;;3.30;99.90;;;;;;4855550;29;20115;-75
2022/01/06 02:32:58;;;;;;;13.63;2.88;;;3.30;99.90;;;;;;4855795;29;20096;-75
2022/01/06 02:35:24;;;;;;;13.23;3.20;;;3.30;99.90;;;;;;4854569;29;20113;-75
2022/01/06 02:37:50;;;;;;;16.63;3.10;;;3.30;99.90;;;;;;4855874;29;20099;-75
2022/01/06 02:40:22;;;;;;;16.70;4.07;;;3.40;99.90;;;;;;4840165;29;20057;-77
2022/01/06 02:42:51;;;;;;;19.05;3.10;;;3.40;99.90;;;;;;4855803;29;20060;-75
2022/01/06 02:45:26;;;;;;;25.67;3.70;;;3.40;99.90;;;;;;4854321;29;20120;-75
2022/01/06 02:47:53;;;;;;;14.27;3.38;;;3.40;99.90;;;;;;4855964;29;20076;-76
2022/01/06 02:50:18;;;;;;;22.63;3.25;;;3.40;99.90;;;;;;4846162;29;20089;-76
2022/01/06 02:52:45;;;;;;;18.65;3.78;;;3.40;99.90;;;;;;4837403;29;20049;-75
2022/01/06 02:55:13;;;;;;;19.20;3.85;;;3.40;99.90;;;;;;4850685;29;20507;-75
2022/01/06 02:57:40;;;;;;;22.05;4.40;;;3.40;99.90;;;;;;4855723;29;20054;-75
2022/01/06 03:00:14;;;;;;;22.30;4.90;;;3.40;99.90;;;;;;4870689;29;20128;-76
2022/01/06 03:02:43;;;;;;;14.70;3.75;;;3.30;99.90;;;;;;4855649;29;20049;-74
2022/01/06 03:05:13;;;;;;;17.83;3.45;;;3.30;99.90;;;;;;4918375;29;20059;-74
2022/01/06 03:07:40;;;;;;;20.30;3.53;;;3.30;99.90;;;;;;4912105;29;20051;-76
2022/01/06 03:10:08;;;;;;;19.35;3.67;;;3.30;99.90;;;;;;4929315;29;20120;-76
2022/01/06 03:12:39;;;;;;;20.35;3.50;;;3.30;99.90;;;;;;4943934;29;20048;-77
2022/01/06 03:15:09;;;;;;;27.90;3.30;;;3.30;99.90;;;;;;4929161;29;20048;-75
2022/01/06 03:17:36;;;;;;;11.27;2.95;;;3.20;99.90;;;;;;4896175;29;20087;-75
2022/01/06 03:20:07;;;;;;;17.90;3.97;;;3.20;99.90;;;;;;4927748;29;20096;-75
2022/01/06 03:22:32;;;;;;;26.20;3.92;;;3.20;99.90;;;;;;4911659;29;20127;-75
2022/01/06 03:24:58;;;;;;;16.40;3.93;;;3.20;99.90;;;;;;4912227;29;20408;-75
2022/01/06 03:27:24;;;;;;;11.85;3.58;;;3.20;99.90;;;;;;4910559;29;20044;-75
2022/01/06 03:29:50;;;;;;;18.33;3.53;;;3.10;99.90;;;;;;4912056;29;20067;-75
2022/01/06 03:32:20;;;;;;;19.80;4.03;;;3.00;99.90;;;;;;4943449;29;20051;-75
2022/01/06 03:34:46;;;;;;;19.83;3.72;;;3.00;99.90;;;;;;4911925;29;20052;-77
2022/01/06 03:37:13;;;;;;;22.38;4.65;;;2.90;99.90;;;;;;4928917;29;20040;-75
2022/01/06 03:39:40;;;;;;;26.45;3.75;;;2.90;99.90;;;;;;4911551;29;20048;-75
2022/01/06 03:42:06;;;;;;;19.05;3.85;;;2.90;99.90;;;;;;4911554;29;20051;-74
2022/01/06 03:44:32;;;;;;;20.10;3.50;;;2.80;99.90;;;;;;4928881;29;20060;-75
2022/01/06 03:46:57;;;;;;;25.10;4.10;;;2.80;99.90;;;;;;4911723;29;20056;-75
2022/01/06 03:49:23;;;;;;;19.17;4.50;;;2.70;99.90;;;;;;4911243;29;20079;-75
2022/01/06 03:51:49;;;;;;;17.67;3.35;;;2.70;99.90;;;;;;4929008;29;20044;-75
2022/01/06 03:54:15;;;;;;;16.70;3.47;;;2.70;99.90;;;;;;4928471;29;20048;-76
2022/01/06 03:56:41;;;;;;;17.52;3.30;;;2.60;99.90;;;;;;4924185;29;20044;-75
2022/01/06 03:59:07;;;;;;;21.00;3.33;;;2.50;99.90;;;;;;4911347;29;20044;-75
2022/01/06 04:01:33;;;;;;;14.43;2.90;;;2.50;99.90;;;;;;4907960;29;20044;-75
2022/01/06 04:03:59;;;;;;;15.98;3.80;;;2.40;99.90;;;;;;4893221;29;20048;-75
2022/01/06 04:06:25;;;;;;;20.58;3.75;;;2.30;99.90;;;;;;4942479;29;20036;-76
2022/01/06 04:08:51;;;;;;;21.70;4.63;;;2.30;99.90;;;;;;4910648;29;20094;-76
2022/01/06 04:11:17;;;;;;;19.65;3.97;;;2.30;99.90;;;;;;4911036;29;20044;-75
2022/01/06 04:13:44;;;;;;;27.65;3.97;;;2.20;99.90;;;;;;4910844;29;20052;-75
2022/01/06 04:16:13;;;;;;;17.33;3.78;;;2.20;99.90;;;;;;4910984;29;20075;-75
2022/01/06 04:18:39;;;;;;;14.90;3.13;;;2.10;99.90;;;;;;4910740;29;20048;-76
2022/01/06 04:21:06;;;;;;;18.87;4.00;;;2.10;99.90;;;;;;4928598;29;20044;-75
2022/01/06 04:23:33;;;;;;;26.98;3.80;;;2.10;99.90;;;;;;4927688;29;20051;-75
2022/01/06 04:25:58;;;;;;;23.65;3.75;;;2.00;99.90;;;;;;4928261;29;20066;-75
2022/01/06 04:28:24;;;;;;;20.48;3.55;;;2.00;99.90;;;;;;4913976;29;20056;-75
2022/01/06 04:30:50;;;;;;;17.27;3.87;;;2.00;99.90;;;;;;4910105;29;20187;-75
2022/01/06 04:33:15;;;;;;;21.03;4.00;;;2.00;99.90;;;;;;4911099;29;20164;-75
2022/01/06 04:35:41;;;;;;;15.30;2.90;;;1.90;99.90;;;;;;4910575;29;20312;-75
2022/01/06 04:38:07;;;;;;;22.47;5.10;;;1.90;99.90;;;;;;4908384;29;20044;-75
2022/01/06 04:40:32;;;;;;;20.03;4.00;;;1.90;99.90;;;;;;4937951;29;20373;-75
2022/01/06 04:42:58;;;;;;;25.70;4.40;;;1.90;99.90;;;;;;4942589;29;20137;-75
2022/01/06 04:45:23;;;;;;;15.50;2.87;;;1.80;99.90;;;;;;4927507;29;20441;-75
2022/01/06 04:47:49;;;;;;;38.60;4.90;;;1.80;99.90;;;;;;4927650;29;20044;-75
2022/01/06 04:50:15;;;;;;;21.03;4.10;;;1.80;99.90;;;;;;4910428;29;20048;-74
2022/01/06 04:52:41;;;;;;;25.13;4.00;;;1.80;99.90;;;;;;4927461;29;20159;-75
2022/01/06 04:55:07;;;;;;;21.33;4.37;;;1.80;99.90;;;;;;4910279;29;20044;-75
2022/01/06 04:57:33;;;;;;;19.02;3.55;;;1.80;99.90;;;;;;4927648;29;20488;-75
2022/01/06 04:59:59;;;;;;;21.58;4.10;;;1.80;99.90;;;;;;4894423;29;20067;-74
2022/01/06 05:02:25;;;;;;;20.50;4.80;;;1.70;99.90;;;;;;4909977;29;20056;-75
2022/01/06 05:04:50;;;;;;;25.40;3.93;;;1.70;99.90;;;;;;4930751;29;20087;-75
2022/01/06 05:07:16;;;;;;;20.05;3.50;;;1.70;99.90;;;;;;4929537;29;20044;-75
2022/01/06 05:09:42;;;;;;;20.03;3.20;;;1.70;99.90;;;;;;4937373;29;20124;-75
2022/01/06 05:12:07;;;;;;;23.87;4.87;;;1.70;99.90;;;;;;4910430;29;20121;-75
2022/01/06 05:14:33;;;;;;;26.85;3.35;;;1.70;99.90;;;;;;4910030;29;20055;-75
2022/01/06 05:17:00;;;;;;;20.83;3.57;;;1.70;99.90;;;;;;4910051;29;20072;-75
2022/01/06 05:19:26;;;;;;;21.48;3.78;;;1.60;99.90;;;;;;4899822;29;20076;-75
2022/01/06 05:21:52;;;;;;;25.98;3.83;;;1.60;99.90;;;;;;4908914;29;20056;-75
2022/01/06 05:24:19;;;;;;;24.83;3.78;;;1.60;99.90;;;;;;4926394;29;20063;-75
2022/01/06 05:26:44;;;;;;;17.33;3.50;;;1.60;99.90;;;;;;4914917;29;20046;-75
2022/01/06 05:29:12;;;;;;;18.23;3.13;;;1.60;99.90;;;;;;4934353;29;20135;-75
2022/01/06 05:31:38;;;;;;;18.67;3.58;;;1.60;99.90;;;;;;4894174;29;20420;-75
2022/01/06 05:34:05;;;;;;;16.02;4.05;;;1.60;99.90;;;;;;4941169;29;20040;-75
2022/01/06 05:36:31;;;;;;;17.92;3.38;;;1.50;99.90;;;;;;4941308;29;20083;-75
2022/01/06 05:38:57;;;;;;;25.05;3.95;;;1.50;99.90;;;;;;4909281;29;20051;-75
2022/01/06 05:41:22;;;;;;;13.47;3.13;;;1.50;99.90;;;;;;4926781;29;20055;-75
2022/01/06 05:43:49;;;;;;;22.40;3.53;;;1.50;99.90;;;;;;4906380;29;20131;-75
2022/01/06 05:46:16;;;;;;;22.33;3.97;;;1.50;99.90;;;;;;4906681;29;20053;-75
2022/01/06 05:48:42;;;;;;;22.83;3.95;;;1.50;99.90;;;;;;4907523;29;20047;-75
2022/01/06 05:51:08;;;;;;;26.63;5.40;;;1.50;99.90;;;;;;4889983;29;20060;-75
2022/01/06 05:53:33;;;;;;;28.63;4.72;;;1.50;99.90;;;;;;4905961;29;20068;-75
2022/01/06 05:55:59;;;;;;;26.23;4.63;;;1.40;99.90;;;;;;4906891;29;20052;-75
2022/01/06 05:58:25;;;;;;;17.40;4.80;;;1.40;99.90;;;;;;4906463;29;20091;-75
2022/01/06 06:00:50;;;;;;;18.53;4.77;;;1.40;99.90;;;;;;4906106;29;20496;-75
2022/01/06 06:03:16;;;;;;;18.23;3.37;;;1.40;99.90;;;;;;4906085;29;20040;-75
2022/01/06 06:05:42;;;;;;;25.03;3.83;;;1.40;99.90;;;;;;4906494;29;20124;-74
2022/01/06 06:08:09;;;;;;;18.38;3.75;;;1.40;99.90;;;;;;4906229;29;20045;-75
2022/01/06 06:10:35;;;;;;;25.77;3.55;;;1.40;99.90;;;;;;4906276;29;20150;-75
2022/01/06 06:13:01;;;;;;;28.08;4.05;;;1.40;99.90;;;;;;4906067;29;20127;-75
2022/01/06 06:15:28;;;;;;;25.73;4.00;;;1.30;99.90;;;;;;4906473;29;20055;-75
2022/01/06 06:17:53;;;;;;;33.95;4.60;;;1.30;99.90;;;;;;4906014;29;20048;-75
2022/01/06 06:20:20;;;;;;;21.60;3.93;;;1.40;99.90;;;;;;4906543;29;20062;-75
2022/01/06 06:22:45;;;;;;;25.58;4.25;;;1.40;99.90;;;;;;4905922;29;20040;-75
2022/01/06 06:25:11;;;;;;;23.77;3.67;;;1.40;99.90;;;;;;4890423;29;20071;-72
2022/01/06 06:27:37;;;;;;;20.33;4.50;;;1.30;99.90;;;;;;4910971;29;20087;-70
2022/01/06 06:30:04;;;;;;;23.03;3.80;;;1.40;99.90;;;;;;4907505;29;20159;-75
2022/01/06 06:32:33;;;;;;;22.95;4.00;;;1.40;99.90;;;;;;4919244;29;20057;-74
2022/01/06 06:34:59;;;;;;;26.35;3.85;;;1.40;99.90;;;;;;4906375;29;20053;-79
2022/01/06 06:37:25;;;;;;;16.77;3.10;;;1.40;99.90;;;;;;4905619;29;20119;-84
2022/01/06 06:39:51;;;;;;;25.60;3.43;;;1.40;99.90;;;;;;4890549;29;20091;-83
2022/01/06 06:42:16;;;;;;;27.80;3.93;;;1.40;99.90;;;;;;4905852;29;20055;-84
2022/01/06 06:44:42;;;;;;;29.17;3.90;;;1.40;99.90;;;;;;4894675;29;20067;-80
2022/01/06 06:47:07;;;;;;;20.87;3.73;;;1.30;99.90;;;;;;4905621;29;20045;-79
2022/01/06 06:49:33;;;;;;;25.43;4.00;;;1.30;99.90;;;;;;4907401;29;20072;-80
2022/01/06 06:51:59;;;;;;;28.17;3.73;;;1.30;99.90;;;;;;4906128;29;20071;-78
2022/01/06 06:54:26;;;;;;;20.57;3.47;;;1.30;99.90;;;;;;4890512;29;20060;-77
2022/01/06 06:56:52;;;;;;;26.77;4.28;;;1.30;99.90;;;;;;4899303;29;20052;-79
2022/01/06 06:59:18;;;;;;;23.17;3.67;;;1.30;99.90;;;;;;4892220;29;20123;-77
2022/01/06 07:01:44;;;;;;;24.63;4.00;;;1.20;99.90;;;;;;4890588;29;20057;-77
2022/01/06 07:04:09;;;;;;;18.30;3.35;;;1.20;99.90;;;;;;4909484;29;20055;-77
2022/01/06 07:06:35;;;;;;;18.50;4.03;;;1.20;99.90;;;;;;4894098;29;20056;-78
2022/01/06 07:09:01;;;;;;;19.13;3.30;;;1.20;99.90;;;;;;4909652;29;20152;-78
2022/01/06 07:11:26;;;;;;;24.13;4.17;;;1.10;99.90;;;;;;4911009;29;20052;-78
2022/01/06 07:13:52;;;;;;;29.90;3.92;;;1.10;99.90;;;;;;4909322;29;20074;-78
2022/01/06 07:16:18;;;;;;;19.52;3.95;;;1.10;99.90;;;;;;4909476;29;20048;-72
2022/01/06 07:18:43;;;;;;;17.43;4.17;;;1.10;99.90;;;;;;4909084;29;20527;-78
2022/01/06 07:21:09;;;;;;;20.27;3.63;;;1.10;99.90;;;;;;4909645;29;20164;-78
2022/01/06 07:23:35;;;;;;;29.07;3.93;;;1.20;99.90;;;;;;4908432;29;20413;-75
2022/01/06 07:26:00;;;;;;;25.27;5.20;;;1.30;99.90;;;;;;4909816;29;20057;-75
2022/01/06 07:28:26;;;;;;;28.50;4.20;;;1.30;99.90;;;;;;4920965;29;20047;-77
2022/01/06 07:30:52;;;;;;;27.20;4.20;;;1.30;99.90;;;;;;4939829;29;20041;-75
2022/01/06 07:33:17;;;;;;;16.27;3.28;;;1.40;99.90;;;;;;4908173;29;20052;-74
2022/01/06 07:35:43;;;;;;;19.93;3.63;;;1.40;99.90;;;;;;4908446;29;20063;-69
2022/01/06 07:38:09;;;;;;;23.60;3.60;;;1.40;99.90;;;;;;4908596;29;20051;-70
2022/01/06 07:40:35;;;;;;;24.23;4.33;;;1.50;99.90;;;;;;4911832;29;20060;-72
2022/01/06 07:43:00;;;;;;;19.80;4.13;;;1.50;99.90;;;;;;4908739;29;20056;-72
2022/01/06 07:45:26;;;;;;;29.13;5.27;;;1.50;99.90;;;;;;4918238;29;20397;-73
2022/01/06 07:47:56;;;;;;;26.40;4.27;;;1.50;99.90;;;;;;4909838;29;20292;-73
2022/01/06 07:50:24;;;;;;;23.95;4.13;;;1.50;99.90;;;;;;4908295;29;20048;-71
2022/01/06 07:52:50;;;;;;;20.67;4.15;;;1.50;99.90;;;;;;4908028;29;20045;-69
2022/01/06 07:55:15;;;;;;;22.57;4.93;;;1.50;99.90;;;;;;4905471;29;20109;-68
2022/01/06 07:57:41;;;;;;;23.93;4.87;;;1.50;99.90;;;;;;4934530;29;20116;-72
2022/01/06 08:00:07;;;;;;;19.10;3.80;;;1.50;99.90;;;;;;4940382;29;20137;-71
2022/01/06 08:02:33;;;;;;;32.50;6.15;;;1.50;99.90;;;;;;4908625;29;20072;-71
2022/01/06 08:04:58;;;;;;;25.40;4.27;;;1.50;99.90;;;;;;4891725;29;20048;-70
2022/01/06 08:07:24;;;;;;;29.67;6.80;;;1.50;99.90;;;;;;4909398;29;20067;-70
2022/01/06 08:09:50;;;;;;;27.47;4.53;;;1.60;99.90;;;;;;4908127;29;20056;-70
2022/01/06 08:12:15;;;;;;;21.47;4.07;;;1.60;99.90;;;;;;4892509;29;20063;-70
2022/01/06 08:14:41;;;;;;;25.37;4.50;;;1.70;99.90;;;;;;4908027;29;20052;-71
2022/01/06 08:17:07;;;;;;;19.33;4.03;;;1.80;99.90;;;;;;4907955;29;20048;-70
2022/01/06 08:19:32;;;;;;;38.57;4.77;;;1.90;99.90;;;;;;4908027;29;20123;-71
2022/01/06 08:21:58;;;;;;;20.10;4.07;;;2.00;99.90;;;;;;4909408;29;20128;-72
2022/01/06 08:24:23;;;;;;;27.20;4.60;;;2.00;99.90;;;;;;4907658;29;20509;-69
2022/01/06 08:26:49;;;;;;;24.13;4.07;;;2.10;99.90;;;;;;4907447;29;20044;-70
2022/01/06 08:29:15;;;;;;;24.20;4.60;;;2.20;99.90;;;;;;4906780;29;20503;-71
2022/01/06 08:31:40;;;;;;;24.13;4.27;;;2.30;99.90;;;;;;4907787;29;20056;-72
2022/01/06 08:34:06;;;;;;;24.80;4.47;;;2.30;99.90;;;;;;4909013;29;20044;-69
2022/01/06 08:36:32;;;;;;;26.17;4.87;;;2.40;99.90;;;;;;4909056;29;20052;-72
2022/01/06 08:38:57;;;;;;;31.73;4.87;;;2.30;99.90;;;;;;4907229;29;20267;-73
2022/01/06 08:41:23;;;;;;;16.83;3.73;;;2.30;99.90;;;;;;4907677;29;20312;-71
2022/01/06 08:43:49;;;;;;;21.93;4.50;;;2.40;99.90;;;;;;4910222;29;20054;-76
2022/01/06 08:46:19;;;;;;;22.03;4.30;;;2.30;99.90;;;;;;4907375;29;20068;-73
2022/01/06 08:48:45;;;;;;;23.60;4.50;;;2.30;99.90;;;;;;4908782;29;20074;-73
2022/01/06 08:51:11;;;;;;;17.00;4.07;;;2.20;99.90;;;;;;4907041;29;20127;-71
2022/01/06 08:53:37;;;;;;;23.83;4.25;;;2.20;99.90;;;;;;4908381;29;20386;-74
2022/01/06 08:56:03;;;;;;;27.25;4.45;;;2.20;99.90;;;;;;4908026;29;20049;-73
2022/01/06 08:58:29;;;;;;;21.45;3.85;;;2.10;99.90;;;;;;4938795;29;20060;-74
2022/01/06 09:00:54;;;;;;;22.40;3.90;;;2.10;99.90;;;;;;4908695;29;20048;-74
2022/01/06 09:03:20;;;;;;;29.33;4.40;;;2.00;99.90;;;;;;4907147;29;20048;-72
2022/01/06 09:05:46;;;;;;;24.27;5.33;;;2.00;99.90;;;;;;4922113;29;20068;-73
2022/01/06 09:08:11;;;;;;;25.53;5.03;;;2.00;99.90;;;;;;4891017;29;20069;-74
2022/01/06 09:10:37;;;;;;;18.33;4.93;;;2.00;99.90;;;;;;4908365;29;20331;-72
2022/01/06 09:13:04;;;;;;;25.40;6.33;;;2.00;99.90;;;;;;4906779;29;20466;-73
2022/01/06 09:15:30;;;;;;;20.33;4.70;;;1.90;99.90;;;;;;4906841;29;20159;-72
2022/01/06 09:17:56;;;;;;;24.83;5.25;;;2.00;99.90;;;;;;4907771;29;20095;-74
2022/01/06 09:20:22;;;;;;;36.22;7.20;;;2.00;99.90;;;;;;4906581;29;20044;-78
2022/01/06 09:22:48;;;;;;;22.13;5.25;;;2.00;99.90;;;;;;4897025;29;20421;-71
2022/01/06 09:25:15;;;;;;;27.98;7.95;;;2.00;99.90;;;;;;4907061;29;20060;-69
2022/01/06 09:27:42;;;;;;;32.05;5.65;;;2.00;99.90;;;;;;4921844;29;20985;-71
2022/01/06 09:30:08;;;;;;;23.75;5.53;;;2.10;99.90;;;;;;4918957;29;20143;-70
2022/01/06 09:32:34;;;;;;;28.73;5.82;;;2.10;99.90;;;;;;4914956;29;20060;-70
2022/01/06 09:35:00;;;;;;;27.95;6.57;;;2.10;99.90;;;;;;4909536;29;20052;-73
2022/01/06 09:37:26;;;;;;;23.75;6.28;;;2.10;99.90;;;;;;4915174;29;20096;-75
2022/01/06 09:39:52;;;;;;;21.50;4.82;;;2.10;99.90;;;;;;4908706;29;20163;-70
2022/01/06 09:42:19;;;;;;;30.50;6.47;;;2.20;99.90;;;;;;4914019;29;20087;-72
2022/01/06 09:44:50;;;;;;;27.40;5.68;;;2.20;99.90;;;;;;4918125;29;20452;-72
2022/01/06 09:47:17;;;;;;;29.10;6.65;;;2.30;99.90;;;;;;4913510;29;20075;-72
2022/01/06 09:49:44;;;;;;;25.80;7.18;;;2.30;99.90;;;;;;4922541;29;20174;-72
2022/01/06 09:52:11;;;;;;;20.88;5.72;;;2.30;99.90;;;;;;4912511;29;20068;-70
2022/01/06 09:54:39;;;;;;;28.77;6.50;;;2.40;99.90;;;;;;4908541;29;20068;-70
2022/01/06 09:57:06;;;;;;;24.42;7.18;;;2.50;99.90;;;;;;4911799;29;20049;-71
2022/01/06 09:59:32;;;;;;;30.50;6.82;;;2.50;99.90;;;;;;4898176;29;20537;-70
2022/01/06 10:01:58;;;;;;;31.15;7.43;;;2.50;99.90;;;;;;4922585;29;20041;-71
2022/01/06 10:04:28;;;;;;;23.77;5.28;;;2.60;99.90;;;;;;4917703;29;20056;-72
2022/01/06 10:07:06;;;;;;;30.83;5.68;;;2.60;99.90;;;;;;4919497;29;20103;-71
2022/01/06 10:09:34;;;;;;;33.47;7.20;;;2.70;99.90;;;;;;4909042;29;20088;-71
2022/01/06 10:12:03;;;;;;;29.98;5.40;;;2.70;99.90;;;;;;4913570;29;20088;-71
2022/01/06 10:14:47;;;;;;;33.88;5.90;;;2.80;99.90;;;;;;4916730;29;20151;-70
2022/01/06 10:17:29;;;;;;;26.52;5.15;;;2.80;99.90;;;;;;4913415;29;20191;-71
2022/01/06 10:19:55;;;;;;;28.52;6.20;;;2.90;99.90;;;;;;4910197;29;20052;-71
2022/01/06 10:25:07;;;;;;;19.80;4.82;;;2.90;99.90;;;;;;4999120;23;20047;-67
2022/01/06 10:27:34;;;;;;;29.52;5.90;;;3.00;99.90;;;;;;4959948;29;20055;-67
2022/01/06 10:32:37;;;;;;;22.27;4.68;;;3.00;99.90;;;;;;4701735;26;19925;-70
2022/01/06 10:35:05;;;;;;;24.10;5.55;;;3.00;99.90;;;;;;4963314;28;20085;-72
2022/01/06 10:40:34;;;;;;;21.05;6.00;;;3.10;99.90;;;;;;4963254;23;20127;-69
2022/01/06 10:43:06;;;;;;;34.03;5.80;;;3.10;99.90;;;;;;4932568;29;20083;-75
2022/01/06 10:45:34;;;;;;;28.15;5.70;;;3.20;99.90;;;;;;4932033;29;20463;-73
2022/01/06 10:48:01;;;;;;;25.50;6.05;;;3.20;99.90;;;;;;4933786;29;20055;-71
2022/01/06 10:50:36;;;;;;;20.20;4.80;;;3.20;99.90;;;;;;4930201;29;20044;-69
2022/01/06 10:53:07;;;;;;;24.90;4.40;;;3.30;99.90;;;;;;4930256;29;20080;-70
2022/01/06 10:55:36;;;;;;;21.95;5.22;;;3.30;99.90;;;;;;4929529;29;20055;-66
2022/01/06 11:48:59;;;;;;;24.15;4.07;;;4.10;99.90;;;;;;4926038;28;20044;-72
2022/01/06 11:51:31;;;;;;;25.20;4.33;;;4.10;99.90;;;;;;4943185;29;20055;-67
2022/01/06 11:53:58;;;;;;;18.48;3.72;;;4.10;99.90;;;;;;4934411;29;20298;-72
2022/01/06 11:56:24;;;;;;;23.83;4.82;;;4.20;99.90;;;;;;4953614;29;20047;-74
2022/01/06 12:02:00;;;;;;;25.23;6.20;;;4.20;99.90;;;;;;4956404;23;20062;-71
2022/01/06 12:04:27;;;;;;;17.58;5.15;;;4.20;99.90;;;;;;4933638;29;20357;-68
2022/01/06 12:07:07;;;;;;;20.00;4.30;;;4.30;99.90;;;;;;4944855;29;20048;-75
2022/01/06 12:09:33;;;;;;;17.92;4.75;;;4.30;99.90;;;;;;4932891;29;20114;-72
2022/01/06 12:12:04;;;;;;;25.45;4.78;;;4.40;99.90;;;;;;4921631;29;20390;-72
2022/01/06 12:14:30;;;;;;;24.23;5.03;;;4.40;99.90;;;;;;4932790;29;20064;-71
2022/01/06 12:17:10;;;;;;;32.90;5.78;;;4.40;99.90;;;;;;4944800;29;20061;-72
2022/01/06 12:19:37;;;;;;;37.22;5.32;;;4.40;99.90;;;;;;4943850;29;20048;-71
2022/01/06 12:22:04;;;;;;;21.80;4.40;;;4.50;99.90;;;;;;4936618;29;20051;-71
2022/01/06 12:24:30;;;;;;;17.30;4.72;;;4.50;99.90;;;;;;4933240;29;20128;-72
2022/01/06 12:26:56;;;;;;;26.92;4.47;;;4.50;99.90;;;;;;4932234;29;20071;-71
2022/01/06 12:29:26;;;;;;;29.65;5.68;;;4.60;99.90;;;;;;4934908;29;20050;-72
2022/01/06 12:32:03;;;;;;;20.23;4.20;;;4.60;99.90;;;;;;4944131;29;20194;-71
2022/01/06 12:34:29;;;;;;;17.50;4.47;;;4.60;99.90;;;;;;4937185;29;20126;-72
2022/01/06 12:36:54;;;;;;;25.30;5.27;;;4.60;99.90;;;;;;4944188;29;20106;-72
2022/01/06 12:39:22;;;;;;;21.33;4.23;;;4.70;99.90;;;;;;4944704;29;20040;-71
2022/01/06 12:41:49;;;;;;;25.10;5.35;;;4.70;99.90;;;;;;4933124;29;20153;-71
2022/01/06 12:44:24;;;;;;;23.77;5.63;;;4.80;99.90;;;;;;4944664;29;20096;-72
2022/01/06 12:46:50;;;;;;;18.58;4.18;;;4.80;99.90;;;;;;4943368;29;20055;-73
2022/01/06 12:49:16;;;;;;;;;;;4.80;99.90;;;;;;4930262;29;20063;-70
2022/01/06 12:51:45;;;;;;;24.80;4.30;;;4.80;99.90;;;;;;4946109;29;19934;-74
2022/01/06 12:54:22;;;;;;;22.27;4.78;;;4.80;99.90;;;;;;4940645;29;20075;-76
2022/01/06 12:56:54;;;;;;;26.58;5.05;;;4.80;99.90;;;;;;4930062;29;20052;-74
2022/01/06 12:59:39;;;;;;;27.52;5.25;;;4.90;99.90;;;;;;4945192;29;20054;-74
2022/01/06 13:02:13;;;;;;;22.60;4.75;;;4.80;99.90;;;;;;4941740;29;20253;-73
2022/01/06 13:04:44;;;;;;;26.27;5.68;;;4.90;99.90;;;;;;4923332;29;20210;-72
2022/01/06 13:07:13;;;;;;;18.55;4.78;;;4.90;99.90;;;;;;4928975;29;20067;-75
2022/01/06 13:09:43;;;;;;;20.45;4.07;;;4.90;99.90;;;;;;4928861;29;20198;-77
2022/01/06 13:12:18;;;;;;;19.50;4.15;;;4.90;99.90;;;;;;4943358;29;20043;-78
2022/01/06 13:14:48;;;;;;;20.40;3.67;;;4.90;99.90;;;;;;4944594;29;20074;-72
2022/01/06 13:17:20;;;;;;;21.63;4.60;;;4.90;99.90;;;;;;4905254;29;20115;-73
2022/01/06 13:19:54;;;;;;;15.73;3.60;;;4.90;99.90;;;;;;4927490;29;20138;-71
2022/01/06 13:22:48;;;;;;;20.38;3.83;;;4.90;99.90;;;;;;4926622;29;20047;-72
2022/01/06 13:25:16;;;;;;;23.02;4.60;;;4.90;99.90;;;;;;4922549;29;20056;-71
2022/01/06 13:28:07;;;;;;;34.33;5.50;;;4.90;99.90;;;;;;4928384;29;20052;-72
2022/01/06 13:30:43;;;;;;;15.85;5.68;;;4.90;99.90;;;;;;4941286;29;20100;-71
2022/01/06 13:33:12;;;;;;;14.73;3.63;;;5.00;99.90;;;;;;4919931;29;20075;-71
2022/01/06 13:35:53;;;;;;;24.15;4.07;;;5.00;99.90;;;;;;4928171;29;20060;-73
2022/01/06 13:38:24;;;;;;;24.77;4.18;;;5.00;99.90;;;;;;4928332;29;20051;-64
2022/01/06 13:40:58;;;;;;;16.48;3.78;;;5.10;99.90;;;;;;4946351;29;20048;-60
2022/01/06 13:43:25;;;;;;;16.10;3.80;;;5.10;99.90;;;;;;4945859;29;20039;-68
2022/01/06 13:45:51;;;;;;;25.67;4.80;;;5.00;99.90;;;;;;4929206;29;20126;-60
2022/01/06 14:19:32;;;;;;;14.82;3.17;;;5.00;99.90;;;;;;5512417;23;20042;-73
2022/01/06 14:21:57;;;;;;;17.52;3.83;;;5.00;99.90;;;;;;4821567;29;20440;-76
2022/01/06 14:24:23;;;;;;;16.63;3.20;;;5.00;99.90;;;;;;4821223;29;20484;-73
2022/01/06 14:26:49;;;;;;;17.40;3.63;;;5.00;99.90;;;;;;4829411;29;20058;-74
2022/01/06 14:29:14;;;;;;;17.93;4.23;;;5.00;99.90;;;;;;4855980;29;20053;-66